Arsenal, Utah
Current Conditions -  °F | °C
As of 11:58 AM on Tuesday 27 Jan 2015 (Local Time) from KHIF Reporting Station
Broken Clouds Broken Clouds  
Wind Chill: 45°   Ceiling: 10000
Heat Index: 45°   Visibility: 10mi
Dew Point: 26°   Wind: 0mph
Humidity: 47%   Direction: NA
Pressure: 30.22"   Gusts: NA
Location:  41.123°N, 112.063°W
Report Text: KHIF 271858Z 00000KT 10SM SCT070 BKN100 07/M03 A3022 RMK AO2A RAB12E24 SLP225 P0000 T00731034
Loading
Personal Weather Stations






























Interactive Weather Map New forecast layout! Learn more

10-Day Weather Forecast

Advertisements
Track Severe Weather on mobile